Time;durP1;ratioP1;P1;durP2;ratioP2;P2;SDS_P1;SDS_P2;PMS_P1;PMS_P2;Temp;Humidity;BMP_temperature;BMP_pressure;BME280_temperature;BME280_humidity;BME280_pressure;Samples;Min_cycle;Max_cycle;Signal;HPM_P1;HPM_P2
2021/03/31 00:00:53;;;;;;;;;;;11.70;61.70;;;;;;5088499;28;20037;-75
2021/03/31 00:03:21;;;;;;;;;;;11.70;62.00;;;;;;5090518;28;19915;-74
2021/03/31 00:05:49;;;;;;;;;;;11.70;61.60;;;;;;5091589;28;20332;-75
2021/03/31 00:08:15;;;;;;;;;;;11.60;62.30;;;;;;5098508;27;20364;-75
2021/03/31 00:10:45;;;;;;;;;;;11.60;62.40;;;;;;5075811;28;20027;-75
2021/03/31 00:13:11;;;;;;;;;;;11.60;62.50;;;;;;5078797;28;19919;-75
2021/03/31 00:15:36;;;;;;;;;;;11.60;61.90;;;;;;5074076;28;19927;-75
2021/03/31 00:18:04;;;;;;;;;;;11.60;62.30;;;;;;5075741;28;19920;-75
2021/03/31 00:20:29;;;;;;;;;;;11.50;62.30;;;;;;5108927;27;19920;-75
2021/03/31 00:22:55;;;;;;;;;;;11.50;61.90;;;;;;5075927;28;20353;-75
2021/03/31 00:25:20;;;;;;;;;;;11.50;62.70;;;;;;5074980;28;20329;-75
2021/03/31 00:27:48;;;;;;;;;;;11.50;62.70;;;;;;5090011;28;20471;-75
2021/03/31 00:30:15;;;;;;;;;;;11.50;63.10;;;;;;5093055;28;20472;-75
2021/03/31 00:32:41;;;;;;;;;;;11.50;63.30;;;;;;5090380;28;19919;-75
2021/03/31 00:35:06;;;;;;;;;;;11.50;62.80;;;;;;5088897;28;19912;-75
2021/03/31 00:37:32;;;;;;;;;;;11.40;63.00;;;;;;5093850;28;19920;-75
2021/03/31 00:39:58;;;;;;;;;;;11.50;62.60;;;;;;5079902;28;20520;-75
2021/03/31 00:42:24;;;;;;;;;;;11.40;63.00;;;;;;5075966;28;20416;-75
2021/03/31 00:44:49;;;;;;;;;;;11.40;63.10;;;;;;5090073;28;20025;-75
2021/03/31 00:47:17;;;;;;;;;;;11.40;63.50;;;;;;5071369;28;19966;-75
2021/03/31 00:49:45;;;;;;;;;;;11.40;63.40;;;;;;5079746;28;20057;-75
2021/03/31 00:52:13;;;;;;;;;;;11.40;63.80;;;;;;5090483;28;19927;-74
2021/03/31 00:54:41;;;;;;;;;;;11.40;63.60;;;;;;5074250;28;19920;-75
2021/03/31 00:57:06;;;;;;;;;;;11.40;63.50;;;;;;5076076;28;19931;-75
2021/03/31 00:59:32;;;;;;;;;;;11.30;63.40;;;;;;5079355;28;19912;-75
2021/03/31 01:02:00;;;;;;;;;;;11.40;63.70;;;;;;5072941;28;19912;-75
2021/03/31 01:04:25;;;;;;;;;;;11.30;63.20;;;;;;5091690;28;19911;-75
2021/03/31 01:06:56;;;;;;;;;;;11.30;63.70;;;;;;5089392;28;20348;-75
2021/03/31 01:09:24;;;;;;;;;;;11.30;63.90;;;;;;5085178;28;19919;-75
2021/03/31 01:11:58;;;;;;;;;;;11.30;64.10;;;;;;5092001;28;19931;-75
2021/03/31 01:14:25;;;;;;;;;;;11.20;63.70;;;;;;5094526;28;19920;-75
2021/03/31 01:16:52;;;;;;;;;;;11.20;63.90;;;;;;5091035;28;19916;-75
2021/03/31 01:19:18;;;;;;;;;;;11.20;63.40;;;;;;5085851;28;19981;-75
2021/03/31 01:21:43;;;;;;;;;;;11.20;64.40;;;;;;5102112;27;20378;-75
2021/03/31 01:24:27;;;;;;;;;;;11.20;64.50;;;;;;5092122;28;20892;-74
2021/03/31 01:26:59;;;;;;;;;;;11.20;64.40;;;;;;5081748;28;19916;-75
2021/03/31 01:29:43;;;;;;;;;;;11.10;64.60;;;;;;5082151;28;19930;-75
2021/03/31 01:32:30;;;;;;;;;;;11.10;65.30;;;;;;5082520;28;19923;-74
2021/03/31 01:34:58;;;;;;;;;;;11.10;65.00;;;;;;5080724;28;20245;-75
2021/03/31 01:37:28;;;;;;;;;;;11.00;64.70;;;;;;5096978;28;19941;-75
2021/03/31 01:39:54;;;;;;;;;;;11.00;65.20;;;;;;5099159;28;19974;-75
2021/03/31 01:42:21;;;;;;;;;;;11.00;65.20;;;;;;5088732;28;20356;-75
2021/03/31 01:44:47;;;;;;;;;;;11.00;64.80;;;;;;5079873;27;19939;-75
2021/03/31 01:47:13;;;;;;;;;;;11.00;65.30;;;;;;5078844;28;20369;-75
2021/03/31 01:49:39;;;;;;;;;;;11.00;65.60;;;;;;5087238;28;19927;-75
2021/03/31 01:52:05;;;;;;;;;;;10.90;65.70;;;;;;5076750;28;19919;-75
2021/03/31 01:54:30;;;;;;;;;;;10.90;65.70;;;;;;5099837;28;19916;-75
2021/03/31 01:56:56;;;;;;;;;;;10.90;66.10;;;;;;5099378;28;19912;-75
2021/03/31 01:59:21;;;;;;;;;;;10.90;66.00;;;;;;5097614;28;19913;-75
2021/03/31 02:01:49;;;;;;;;;;;10.90;66.40;;;;;;5095383;28;20364;-75
2021/03/31 02:04:15;;;;;;;;;;;10.90;66.10;;;;;;5100494;28;19912;-75
2021/03/31 02:06:43;;;;;;;;;;;10.90;66.60;;;;;;5089181;28;19916;-75
2021/03/31 02:09:08;;;;;;;;;;;10.80;66.30;;;;;;5087899;28;20005;-75
2021/03/31 02:11:34;;;;;;;;;;;10.80;66.80;;;;;;5092168;28;20392;-75
2021/03/31 02:13:59;;;;;;;;;;;10.80;66.80;;;;;;5091939;28;20455;-75
2021/03/31 02:16:25;;;;;;;;;;;10.80;66.80;;;;;;5083814;28;20259;-75
2021/03/31 02:18:51;;;;;;;;;;;10.80;67.70;;;;;;5083721;28;19974;-75
2021/03/31 02:21:17;;;;;;;;;;;10.70;68.20;;;;;;5091595;28;19923;-75
2021/03/31 02:23:43;;;;;;;;;;;10.70;66.90;;;;;;5085488;28;19921;-75
2021/03/31 02:26:10;;;;;;;;;;;10.70;68.30;;;;;;5088380;28;19913;-75
2021/03/31 02:28:39;;;;;;;;;;;10.70;68.30;;;;;;5090416;28;19943;-75
2021/03/31 02:31:07;;;;;;;;;;;10.70;68.60;;;;;;5066796;28;19925;-75
2021/03/31 02:33:35;;;;;;;;;;;10.70;68.20;;;;;;5077483;28;19946;-75
2021/03/31 02:36:03;;;;;;;;;;;10.70;68.60;;;;;;5080307;28;19920;-75
2021/03/31 02:38:31;;;;;;;;;;;10.70;68.60;;;;;;5097766;28;19919;-75
2021/03/31 02:40:56;;;;;;;;;;;10.60;69.20;;;;;;5085611;28;19912;-75
2021/03/31 02:43:22;;;;;;;;;;;10.60;68.80;;;;;;5082529;28;19919;-75
2021/03/31 02:45:50;;;;;;;;;;;10.60;69.00;;;;;;5080992;28;19917;-75
2021/03/31 02:48:19;;;;;;;;;;;10.60;69.30;;;;;;5084766;28;19924;-75
2021/03/31 02:50:49;;;;;;;;;;;10.60;69.00;;;;;;5092025;28;19974;-75
2021/03/31 02:53:15;;;;;;;;;;;10.60;68.90;;;;;;5056096;28;19948;-75
2021/03/31 02:55:41;;;;;;;;;;;10.50;69.10;;;;;;5077535;28;20503;-75
2021/03/31 02:58:08;;;;;;;;;;;10.60;69.10;;;;;;5110414;27;19924;-74
2021/03/31 03:00:36;;;;;;;;;;;10.60;68.90;;;;;;5088012;28;19912;-75
2021/03/31 03:03:02;;;;;;;;;;;10.50;69.40;;;;;;5076071;28;19930;-75
2021/03/31 03:05:33;;;;;;;;;;;10.50;70.10;;;;;;5076908;28;19916;-75
2021/03/31 03:07:58;;;;;;;;;;;10.50;69.80;;;;;;5091629;27;20056;-75
2021/03/31 03:10:24;;;;;;;;;;;10.50;69.70;;;;;;5077414;28;19929;-75
2021/03/31 03:12:54;;;;;;;;;;;10.50;69.70;;;;;;5087962;28;20316;-74
2021/03/31 03:15:20;;;;;;;;;;;10.50;70.00;;;;;;5096853;27;19912;-75
2021/03/31 03:17:50;;;;;;;;;;;10.50;69.40;;;;;;5092252;28;20416;-75
2021/03/31 03:20:19;;;;;;;;;;;10.50;69.80;;;;;;5071791;28;19928;-75
2021/03/31 03:22:48;;;;;;;;;;;10.50;70.20;;;;;;5075792;28;19920;-75
2021/03/31 03:25:13;;;;;;;;;;;10.40;70.10;;;;;;5075204;28;19931;-75
2021/03/31 03:27:43;;;;;;;;;;;10.40;69.80;;;;;;5074770;28;19920;-75
2021/03/31 03:30:09;;;;;;;;;;;10.40;70.10;;;;;;5094829;28;19934;-75
2021/03/31 03:32:37;;;;;;;;;;;10.40;70.10;;;;;;5117733;27;19999;-75
2021/03/31 03:35:03;;;;;;;;;;;10.40;70.00;;;;;;5086711;28;19920;-75
2021/03/31 03:37:28;;;;;;;;;;;10.40;69.60;;;;;;5076629;28;19917;-75
2021/03/31 03:39:54;;;;;;;;;;;10.40;70.00;;;;;;5078087;28;19916;-75
2021/03/31 03:42:19;;;;;;;;;;;10.40;70.50;;;;;;5085515;28;20707;-75
2021/03/31 03:44:47;;;;;;;;;;;10.30;70.10;;;;;;5081450;28;20222;-75
2021/03/31 03:47:13;;;;;;;;;;;10.30;70.20;;;;;;5080020;28;19913;-75
2021/03/31 03:49:43;;;;;;;;;;;10.30;70.10;;;;;;5096630;27;19953;-75
2021/03/31 03:52:09;;;;;;;;;;;10.30;70.10;;;;;;5076032;28;19919;-75
2021/03/31 03:54:34;;;;;;;;;;;10.30;70.20;;;;;;5079262;28;19916;-75
2021/03/31 03:57:05;;;;;;;;;;;10.20;70.40;;;;;;5073390;28;19920;-75
2021/03/31 03:59:36;;;;;;;;;;;10.30;70.60;;;;;;5077319;28;19930;-75
2021/03/31 04:02:02;;;;;;;;;;;10.20;70.80;;;;;;5090364;27;19982;-75
2021/03/31 04:04:27;;;;;;;;;;;10.20;70.50;;;;;;5074893;28;19920;-75
2021/03/31 04:06:55;;;;;;;;;;;10.20;70.70;;;;;;5074721;28;19916;-74
2021/03/31 04:09:23;;;;;;;;;;;10.20;70.50;;;;;;5093878;27;19920;-75
2021/03/31 04:11:51;;;;;;;;;;;10.20;70.80;;;;;;5077368;28;19935;-75
2021/03/31 04:14:19;;;;;;;;;;;10.20;71.40;;;;;;5075730;28;19916;-75
2021/03/31 04:16:50;;;;;;;;;;;10.10;70.60;;;;;;5074752;28;19916;-75
2021/03/31 04:19:15;;;;;;;;;;;10.10;71.00;;;;;;5077309;28;19927;-74
2021/03/31 04:21:41;;;;;;;;;;;10.10;70.70;;;;;;5074470;28;19924;-75
2021/03/31 04:24:10;;;;;;;;;;;10.10;71.00;;;;;;5074743;28;20451;-75
2021/03/31 04:26:36;;;;;;;;;;;10.00;71.10;;;;;;5073841;28;19916;-75
2021/03/31 04:29:04;;;;;;;;;;;10.00;71.10;;;;;;5073357;28;20365;-75
2021/03/31 04:31:30;;;;;;;;;;;10.00;71.50;;;;;;5076036;28;20826;-75
2021/03/31 04:33:57;;;;;;;;;;;9.90;70.80;;;;;;5086274;28;19924;-75
2021/03/31 04:36:25;;;;;;;;;;;9.90;71.00;;;;;;5074582;28;19962;-75
2021/03/31 04:38:53;;;;;;;;;;;9.90;71.40;;;;;;5076566;28;20053;-75
2021/03/31 04:41:21;;;;;;;;;;;9.90;71.30;;;;;;5087717;28;19969;-75
2021/03/31 04:43:46;;;;;;;;;;;9.90;71.60;;;;;;5091302;28;20265;-75
2021/03/31 04:46:12;;;;;;;;;;;9.80;71.60;;;;;;5090583;28;19916;-75
2021/03/31 04:48:38;;;;;;;;;;;9.80;71.80;;;;;;5087150;28;19941;-75
2021/03/31 04:51:06;;;;;;;;;;;9.80;71.70;;;;;;5078848;28;19928;-75
2021/03/31 04:53:32;;;;;;;;;;;9.80;72.30;;;;;;5091882;28;19912;-75
2021/03/31 04:56:00;;;;;;;;;;;9.80;72.10;;;;;;5090936;28;19916;-75
2021/03/31 04:58:26;;;;;;;;;;;9.80;72.30;;;;;;5088374;28;19919;-75
2021/03/31 05:00:51;;;;;;;;;;;9.70;72.00;;;;;;5090059;28;19916;-75
2021/03/31 05:03:17;;;;;;;;;;;9.70;72.20;;;;;;5075337;28;19911;-75
2021/03/31 05:05:42;;;;;;;;;;;9.70;72.40;;;;;;5074551;28;19927;-75
2021/03/31 05:08:08;;;;;;;;;;;9.70;72.20;;;;;;5091017;28;19911;-75
2021/03/31 05:10:33;;;;;;;;;;;9.70;73.20;;;;;;5125431;27;20412;-75
2021/03/31 05:12:59;;;;;;;;;;;9.70;72.20;;;;;;5081040;28;20496;-75
2021/03/31 05:15:25;;;;;;;;;;;9.70;72.10;;;;;;5074189;28;19920;-75
2021/03/31 05:17:53;;;;;;;;;;;9.70;72.10;;;;;;5086708;28;19942;-75
2021/03/31 05:20:21;;;;;;;;;;;9.70;71.50;;;;;;5078433;28;19927;-75
2021/03/31 05:22:46;;;;;;;;;;;9.70;72.70;;;;;;5074427;28;20123;-75
2021/03/31 05:25:14;;;;;;;;;;;9.70;72.60;;;;;;5074439;28;20345;-75
2021/03/31 05:27:40;;;;;;;;;;;9.70;72.60;;;;;;5075546;28;19912;-75
2021/03/31 05:30:06;;;;;;;;;;;9.70;72.20;;;;;;5089793;28;19916;-75
2021/03/31 05:32:34;;;;;;;;;;;9.70;72.50;;;;;;5089768;28;19927;-75
2021/03/31 05:35:00;;;;;;;;;;;9.60;73.70;;;;;;5089211;28;19920;-75
2021/03/31 05:37:25;;;;;;;;;;;9.60;72.20;;;;;;5089151;28;20486;-75
2021/03/31 05:39:53;;;;;;;;;;;9.60;72.20;;;;;;5085503;28;19911;-75
2021/03/31 05:42:19;;;;;;;;;;;9.60;73.10;;;;;;5092470;28;20006;-75
2021/03/31 05:44:47;;;;;;;;;;;9.60;73.70;;;;;;5091480;28;20011;-75
2021/03/31 05:47:17;;;;;;;;;;;9.60;73.10;;;;;;5095701;28;20404;-75
2021/03/31 05:49:43;;;;;;;;;;;9.60;73.20;;;;;;5083129;28;19920;-75
2021/03/31 05:52:10;;;;;;;;;;;9.60;73.40;;;;;;5073267;28;19993;-75
2021/03/31 05:54:36;;;;;;;;;;;9.60;74.50;;;;;;5073632;28;19921;-75
2021/03/31 05:57:02;;;;;;;;;;;9.60;74.70;;;;;;5083244;28;19969;-75
2021/03/31 05:59:31;;;;;;;;;;;9.60;74.90;;;;;;5091131;28;19972;-75
2021/03/31 06:01:56;;;;;;;;;;;9.60;75.20;;;;;;5091373;28;19967;-74
2021/03/31 06:04:22;;;;;;;;;;;9.60;75.10;;;;;;5077001;28;20361;-75
2021/03/31 06:06:50;;;;;;;;;;;9.60;75.30;;;;;;5090972;28;20265;-75
2021/03/31 06:09:15;;;;;;;;;;;9.70;75.10;;;;;;5110149;27;20031;-74
2021/03/31 06:11:52;;;;;;;;;;;9.60;75.30;;;;;;5089588;28;19991;-77
2021/03/31 06:14:46;;;;;;;;;;;9.70;75.70;;;;;;5089992;28;19969;-77
2021/03/31 06:17:14;;;;;;;;;;;9.70;76.30;;;;;;5080296;28;20002;-74
2021/03/31 06:19:44;;;;;;;;;;;9.80;77.20;;;;;;5091216;28;19919;-75
2021/03/31 06:23:07;;;;;;;;;;;9.80;76.70;;;;;;5095025;28;19920;-74
2021/03/31 06:25:09;;;;;;;;;;;9.80;77.20;;;;;;5084207;28;19919;-75
2021/03/31 06:27:37;;;;;;;;;;;9.90;76.60;;;;;;5090968;28;19912;-75
2021/03/31 06:30:05;;;;;;;;;;;9.90;77.80;;;;;;5089059;28;20026;-75
2021/03/31 06:32:40;;;;;;;;;;;10.00;78.10;;;;;;5090299;28;19915;-74
2021/03/31 06:35:06;;;;;;;;;;;10.00;77.30;;;;;;5079024;28;19928;-75
2021/03/31 06:37:36;;;;;;;;;;;10.10;79.10;;;;;;5088289;28;19974;-74
2021/03/31 06:40:02;;;;;;;;;;;10.10;80.60;;;;;;5091845;28;20257;-74
2021/03/31 06:42:36;;;;;;;;;;;10.10;80.50;;;;;;5085291;28;19956;-75
2021/03/31 06:45:22;;;;;;;;;;;10.20;78.70;;;;;;5091732;28;19920;-74
2021/03/31 06:47:57;;;;;;;;;;;10.30;78.70;;;;;;5089116;28;19912;-75
2021/03/31 06:50:23;;;;;;;;;;;10.30;79.30;;;;;;5084386;28;19920;-75
2021/03/31 06:52:54;;;;;;;;;;;10.40;79.60;;;;;;5089714;28;19920;-74
2021/03/31 06:55:19;;;;;;;;;;;10.40;79.20;;;;;;5090572;28;19916;-75
2021/03/31 06:57:50;;;;;;;;;;;10.50;79.10;;;;;;5094715;28;19976;-75
2021/03/31 07:00:16;;;;;;;;;;;10.60;79.70;;;;;;5090901;28;19928;-74
2021/03/31 07:02:46;;;;;;;;;;;10.60;80.20;;;;;;5124627;27;19912;-75
2021/03/31 07:05:12;;;;;;;;;;;10.70;81.80;;;;;;5087855;28;19940;-74
2021/03/31 07:07:40;;;;;;;;;;;10.80;81.60;;;;;;5090328;28;19951;-74
2021/03/31 07:10:11;;;;;;;;;;;10.80;79.90;;;;;;5089202;28;19964;-75
2021/03/31 07:12:43;;;;;;;;;;;10.90;79.60;;;;;;5097268;28;20416;-75
2021/03/31 07:15:12;;;;;;;;;;;11.00;78.20;;;;;;5092945;28;20316;-74
2021/03/31 07:17:43;;;;;;;;;;;11.00;76.60;;;;;;5094754;28;20341;-74
2021/03/31 07:20:11;;;;;;;;;;;11.10;77.40;;;;;;5101123;28;19919;-74
2021/03/31 07:22:37;;;;;;;;;;;11.20;74.60;;;;;;5090065;28;20019;-74
2021/03/31 07:25:03;;;;;;;;;;;11.20;75.10;;;;;;5092946;28;20011;-74
2021/03/31 07:27:29;;;;;;;;;;;11.30;76.40;;;;;;5077825;28;20382;-75
2021/03/31 07:30:08;;;;;;;;;;;11.40;74.60;;;;;;5090236;28;19912;-74
2021/03/31 07:32:41;;;;;;;;;;;11.50;74.50;;;;;;5099497;28;19927;-74
2021/03/31 07:35:07;;;;;;;;;;;11.50;75.60;;;;;;5090758;28;19927;-74
2021/03/31 07:37:33;;;;;;;;;;;11.60;75.70;;;;;;5092216;28;19911;-74
2021/03/31 07:39:59;;;;;;;;;;;11.70;76.00;;;;;;5074791;28;19970;-74
2021/03/31 07:42:26;;;;;;;;;;;11.70;76.10;;;;;;5106436;27;19916;-74
2021/03/31 07:44:54;;;;;;;;;;;11.80;73.60;;;;;;5092413;28;20406;-74
2021/03/31 07:47:19;;;;;;;;;;;11.90;74.00;;;;;;5087606;28;19927;-74
2021/03/31 07:49:47;;;;;;;;;;;12.00;75.30;;;;;;5096302;28;19911;-74
2021/03/31 07:52:12;;;;;;;;;;;12.10;75.40;;;;;;5089834;28;19919;-74
2021/03/31 07:54:38;;;;;;;;;;;12.10;73.30;;;;;;5092594;28;20288;-74
2021/03/31 07:57:24;;;;;;;;;;;12.20;74.90;;;;;;5092832;28;20313;-74
2021/03/31 07:59:50;;;;;;;;;;;12.30;74.50;;;;;;5088540;28;20569;-74
2021/03/31 08:02:18;;;;;;;;;;;12.40;75.70;;;;;;5089336;28;20034;-74
2021/03/31 08:04:44;;;;;;;;;;;12.40;75.50;;;;;;5096121;28;19931;-74
2021/03/31 08:07:23;;;;;;;;;;;12.50;74.30;;;;;;5088969;28;19913;-74
2021/03/31 08:09:48;;;;;;;;;;;12.60;76.00;;;;;;5085097;28;19911;-74
2021/03/31 08:12:27;;;;;;;;;;;12.70;75.80;;;;;;5076570;28;19927;-74
2021/03/31 08:14:52;;;;;;;;;;;12.80;77.00;;;;;;5091987;28;20406;-74
2021/03/31 08:17:18;;;;;;;;;;;12.90;75.50;;;;;;5091299;28;20394;-75
2021/03/31 08:19:44;;;;;;;;;;;13.00;74.10;;;;;;5089024;28;19926;-77
2021/03/31 08:22:25;;;;;;;;;;;13.10;71.10;;;;;;5094050;28;20241;-74
2021/03/31 08:24:53;;;;;;;;;;;13.30;75.20;;;;;;5089891;28;19920;-74
2021/03/31 08:27:19;;;;;;;;;;;13.40;75.00;;;;;;5092871;28;19920;-75
2021/03/31 08:29:47;;;;;;;;;;;13.60;76.80;;;;;;5097614;28;20147;-75
2021/03/31 08:32:14;;;;;;;;;;;13.70;77.80;;;;;;5088553;28;20234;-75
2021/03/31 08:34:40;;;;;;;;;;;13.90;77.30;;;;;;5090211;28;19912;-75
2021/03/31 08:37:06;;;;;;;;;;;14.10;73.50;;;;;;5088243;28;19912;-75
2021/03/31 08:39:32;;;;;;;;;;;14.40;75.10;;;;;;5089104;28;19922;-75
2021/03/31 08:42:00;;;;;;;;;;;14.50;72.90;;;;;;5088703;28;20010;-75
2021/03/31 08:44:31;;;;;;;;;;;14.80;74.40;;;;;;5089548;28;19912;-75
2021/03/31 08:47:18;;;;;;;;;;;14.90;74.90;;;;;;5089608;28;19927;-75
2021/03/31 08:49:44;;;;;;;;;;;15.20;73.30;;;;;;5091597;28;19919;-75
2021/03/31 08:52:10;;;;;;;;;;;15.40;70.20;;;;;;5088048;28;20344;-75
2021/03/31 08:54:37;;;;;;;;;;;15.70;72.20;;;;;;5088033;28;19930;-75
2021/03/31 08:57:06;;;;;;;;;;;15.90;70.80;;;;;;5090459;28;19923;-75
2021/03/31 08:59:36;;;;;;;;;;;16.10;71.10;;;;;;5090152;28;19912;-75
2021/03/31 09:02:02;;;;;;;;;;;16.40;69.70;;;;;;5090461;28;19912;-75
2021/03/31 09:04:27;;;;;;;;;;;16.50;66.10;;;;;;5087775;28;19968;-75
2021/03/31 09:06:54;;;;;;;;;;;16.80;67.40;;;;;;5091785;28;19912;-75
2021/03/31 09:09:19;;;;;;;;;;;16.90;65.70;;;;;;5092316;28;20060;-75
2021/03/31 09:11:45;;;;;;;;;;;17.20;62.60;;;;;;5093770;28;20488;-75
2021/03/31 09:14:20;;;;;;;;;;;17.40;63.80;;;;;;5107192;28;19944;-75
2021/03/31 09:16:59;;;;;;;;;;;17.50;63.70;;;;;;5102992;28;19931;-75
2021/03/31 09:19:29;;;;;;;;;;;17.70;66.70;;;;;;5089712;28;19962;-74
2021/03/31 09:21:56;;;;;;;;;;;17.90;64.50;;;;;;5089723;28;19920;-75
2021/03/31 09:24:27;;;;;;;;;;;18.10;58.30;;;;;;5094110;28;19912;-74
2021/03/31 09:26:55;;;;;;;;;;;18.20;58.20;;;;;;5092427;28;20257;-75
2021/03/31 09:29:21;;;;;;;;;;;18.40;54.10;;;;;;5087758;28;19920;-74
2021/03/31 09:31:47;;;;;;;;;;;18.50;52.00;;;;;;5091688;28;19923;-75
2021/03/31 09:34:15;;;;;;;;;;;18.70;54.40;;;;;;5089160;28;19916;-75
2021/03/31 09:36:40;;;;;;;;;;;18.80;54.20;;;;;;5092840;28;20518;-75
2021/03/31 09:39:06;;;;;;;;;;;18.90;55.40;;;;;;5094830;28;19919;-74
2021/03/31 09:41:34;;;;;;;;;;;18.90;53.20;;;;;;5087805;28;19912;-75
2021/03/31 09:44:00;;;;;;;;;;;19.00;54.70;;;;;;5091508;28;19919;-74
2021/03/31 09:46:26;;;;;;;;;;;19.10;52.10;;;;;;5095444;28;19916;-75
2021/03/31 09:48:51;;;;;;;;;;;19.10;54.20;;;;;;5094951;28;19985;-75
2021/03/31 09:51:18;;;;;;;;;;;19.20;53.30;;;;;;5092963;28;20370;-75
2021/03/31 09:53:44;;;;;;;;;;;19.30;51.30;;;;;;5110031;27;20057;-75
2021/03/31 09:56:10;;;;;;;;;;;19.40;55.50;;;;;;5093618;28;20011;-80
2021/03/31 09:58:36;;;;;;;;;;;19.50;54.50;;;;;;5092544;28;19912;-75
2021/03/31 10:01:01;;;;;;;;;;;19.60;53.80;;;;;;5093046;28;19912;-75
2021/03/31 10:03:30;;;;;;;;;;;19.70;49.60;;;;;;5106712;27;19912;-75
2021/03/31 10:05:55;;;;;;;;;;;19.80;51.50;;;;;;4391115;28;10000830;-74
2021/03/31 10:08:22;;;;;;;;;;;20.00;50.30;;;;;;5089514;28;19919;-74
2021/03/31 10:10:47;;;;;;;;;;;20.00;53.50;;;;;;5088671;28;20275;-74
2021/03/31 10:13:16;;;;;;;;;;;20.10;53.50;;;;;;5088824;28;19926;-75
2021/03/31 10:15:47;;;;;;;;;;;20.20;52.90;;;;;;5088995;28;20352;-75
2021/03/31 10:18:15;;;;;;;;;;;20.20;53.70;;;;;;4739798;27;10000413;-74
2021/03/31 10:20:47;;;;;;;;;;;20.30;50.20;;;;;;5083826;28;19920;-75
2021/03/31 10:23:30;;;;;;;;;;;20.40;54.80;;;;;;5088617;28;19934;-75
2021/03/31 10:26:14;;;;;;;;;;;20.50;52.10;;;;;;5090141;28;19959;-75
2021/03/31 10:28:40;;;;;;;;;;;20.60;50.20;;;;;;5086886;28;19915;-75
2021/03/31 10:31:19;;;;;;;;;;;20.70;54.20;;;;;;5090552;28;19951;-75
2021/03/31 10:33:47;;;;;;;;;;;20.70;49.80;;;;;;5087954;28;19916;-74
2021/03/31 10:36:34;;;;;;;;;;;20.80;49.00;;;;;;5088554;28;19981;-74
2021/03/31 10:50:21;;;;;;;;;;;21.30;50.10;;;;;;5091377;28;19930;-74
2021/03/31 10:52:47;;;;;;;;;;;21.30;49.70;;;;;;5091947;28;19911;-75
2021/03/31 10:55:12;;;;;;;;;;;21.30;49.20;;;;;;5089342;28;19915;-73
2021/03/31 10:57:40;;;;;;;;;;;21.40;48.40;;;;;;5092073;28;19926;-74
2021/03/31 11:00:08;;;;;;;;;;;21.40;50.10;;;;;;5091533;27;19938;-75
2021/03/31 11:02:36;;;;;;;;;;;21.50;51.40;;;;;;5088753;28;20345;-74
2021/03/31 11:05:02;;;;;;;;;;;21.60;48.70;;;;;;5092586;28;19916;-74
2021/03/31 11:07:30;;;;;;;;;;;21.80;51.70;;;;;;5092314;28;19917;-75
2021/03/31 11:09:55;;;;;;;;;;;21.90;52.20;;;;;;5088561;28;19947;-74
2021/03/31 11:12:26;;;;;;;;;;;22.00;50.30;;;;;;5089604;28;20369;-74
2021/03/31 11:14:51;;;;;;;;;;;22.20;49.20;;;;;;5096077;28;19926;-74
2021/03/31 11:17:21;;;;;;;;;;;22.20;47.30;;;;;;5091695;28;19920;-75
2021/03/31 11:28:00;;;;;;;;;;;22.80;48.90;;;;;;5091979;28;19991;-72
2021/03/31 11:30:26;;;;;;;;;;;23.00;50.10;;;;;;5091986;28;20136;-72
2021/03/31 11:32:51;;;;;;;;;;;23.20;49.80;;;;;;5089603;28;19955;-72
2021/03/31 11:35:19;;;;;;;;;;;23.30;48.60;;;;;;5072468;28;20345;-72
2021/03/31 11:37:47;;;;;;;;;;;23.40;49.40;;;;;;5101116;28;19926;-72
2021/03/31 11:40:15;;;;;;;;;;;23.50;44.30;;;;;;5091609;28;20046;-75
2021/03/31 11:42:41;;;;;;;;;;;23.60;44.60;;;;;;5094611;28;19916;-72
2021/03/31 11:45:06;;;;;;;;;;;23.70;48.70;;;;;;5092901;28;20444;-72
2021/03/31 11:47:35;;;;;;;;;;;23.90;46.10;;;;;;5090297;28;19912;-72
2021/03/31 11:50:00;;;;;;;;;;;24.00;43.40;;;;;;5074574;28;19969;-72
2021/03/31 11:52:26;;;;;;;;;;;24.20;43.90;;;;;;5091484;28;19919;-72
2021/03/31 11:54:51;;;;;;;;;;;24.30;45.10;;;;;;5095991;28;20325;-72
2021/03/31 11:57:17;;;;;;;;;;;24.40;49.00;;;;;;5087852;28;20323;-72
2021/03/31 11:59:42;;;;;;;;;;;24.50;48.90;;;;;;5090554;28;20017;-73
2021/03/31 12:02:08;;;;;;;;;;;24.70;46.20;;;;;;5085265;28;19923;-73
2021/03/31 12:04:34;;;;;;;;;;;24.90;42.40;;;;;;5094936;28;20262;-73
2021/03/31 12:07:04;;;;;;;;;;;25.10;41.10;;;;;;5092014;28;19941;-72
2021/03/31 12:09:29;;;;;;;;;;;25.20;47.90;;;;;;5090569;28;19974;-72
2021/03/31 12:11:55;;;;;;;;;;;25.40;45.20;;;;;;5090068;28;19935;-73
2021/03/31 12:14:20;;;;;;;;;;;25.50;46.20;;;;;;5091650;28;20412;-73
2021/03/31 12:16:46;;;;;;;;;;;25.60;43.40;;;;;;5090834;28;19966;-72
2021/03/31 12:19:14;;;;;;;;;;;25.70;41.70;;;;;;5089229;28;20010;-74
2021/03/31 12:21:40;;;;;;;;;;;25.70;40.20;;;;;;5089657;28;19912;-72
2021/03/31 12:24:06;;;;;;;;;;;25.80;42.20;;;;;;5090460;28;19915;-73
2021/03/31 12:26:34;;;;;;;;;;;25.60;43.30;;;;;;5087618;28;20492;-73
2021/03/31 12:29:00;;;;;;;;;;;25.70;41.60;;;;;;5088540;28;20264;-73
2021/03/31 12:31:27;;;;;;;;;;;25.90;43.40;;;;;;5090916;28;19934;-74
2021/03/31 12:33:53;;;;;;;;;;;26.10;41.10;;;;;;5094278;28;19916;-73
2021/03/31 12:36:18;;;;;;;;;;;26.20;40.60;;;;;;5091849;28;19941;-73
2021/03/31 12:38:46;;;;;;;;;;;26.10;39.70;;;;;;5086417;28;19999;-73
2021/03/31 12:41:12;;;;;;;;;;;26.20;40.80;;;;;;5088228;28;20310;-73
2021/03/31 12:43:39;;;;;;;;;;;26.30;39.40;;;;;;5087763;28;20042;-73
2021/03/31 12:46:07;;;;;;;;;;;26.30;41.20;;;;;;5095826;28;19917;-74
2021/03/31 12:48:33;;;;;;;;;;;26.20;38.50;;;;;;5089358;28;19913;-73
2021/03/31 12:51:03;;;;;;;;;;;26.20;37.80;;;;;;5092261;28;20437;-74
2021/03/31 12:53:54;;;;;;;;;;;26.30;43.70;;;;;;5084303;28;20606;-73
2021/03/31 12:56:21;;;;;;;;;;;26.30;38.50;;;;;;5088063;28;20643;-74
2021/03/31 12:58:46;;;;;;;;;;;26.50;43.40;;;;;;5089285;28;19972;-74
2021/03/31 13:01:21;;;;;;;;;;;26.70;44.00;;;;;;5090833;28;19920;-73
2021/03/31 13:03:51;;;;;;;;;;;26.90;40.40;;;;;;5087360;28;19912;-74
2021/03/31 13:06:16;;;;;;;;;;;26.90;43.30;;;;;;5089207;28;19919;-73
2021/03/31 13:08:48;;;;;;;;;;;27.10;39.50;;;;;;5090547;28;19917;-74
2021/03/31 13:11:14;;;;;;;;;;;27.10;41.40;;;;;;5089022;28;19919;-73
2021/03/31 13:16:27;;;;;;;;;;;27.10;39.80;;;;;;5087989;28;19916;-74
2021/03/31 13:32:44;;;;;;;;;;;27.20;40.10;;;;;;5087691;28;20015;-75
2021/03/31 13:35:58;;;;;;;;;;;27.30;42.40;;;;;;5088718;28;19971;-76
2021/03/31 13:38:15;;;;;;;;;;;27.10;39.90;;;;;;5084922;28;19912;-74
2021/03/31 13:40:41;;;;;;;;;;;27.00;40.20;;;;;;5095938;28;19916;-73
2021/03/31 13:43:06;;;;;;;;;;;26.80;38.10;;;;;;5089737;28;19939;-74
2021/03/31 13:45:32;;;;;;;;;;;26.80;41.80;;;;;;5087774;28;19913;-74
2021/03/31 13:48:17;;;;;;;;;;;26.70;41.30;;;;;;5087583;28;20387;-74
2021/03/31 13:50:43;;;;;;;;;;;26.70;38.80;;;;;;5087673;28;19924;-74
2021/03/31 13:53:16;;;;;;;;;;;26.80;42.10;;;;;;5090709;28;19916;-74
2021/03/31 13:55:43;;;;;;;;;;;26.80;42.60;;;;;;5088303;28;20415;-74
2021/03/31 13:58:09;;;;;;;;;;;26.70;40.30;;;;;;5089645;28;20337;-74
2021/03/31 14:00:36;;;;;;;;;;;26.80;42.70;;;;;;5090695;28;19908;-74
2021/03/31 14:03:04;;;;;;;;;;;26.80;40.80;;;;;;5090134;28;19942;-74
2021/03/31 14:05:30;;;;;;;;;;;26.70;40.80;;;;;;5092528;28;19952;-74
2021/03/31 14:07:56;;;;;;;;;;;26.70;42.30;;;;;;5086186;28;19992;-74
2021/03/31 14:10:22;;;;;;;;;;;26.70;42.90;;;;;;5088210;28;20373;-74
2021/03/31 14:12:50;;;;;;;;;;;26.50;41.90;;;;;;5075554;28;19923;-74
2021/03/31 14:15:17;;;;;;;;;;;26.50;40.10;;;;;;5094306;28;19916;-74
2021/03/31 14:17:42;;;;;;;;;;;26.40;39.60;;;;;;5087250;28;19916;-74
2021/03/31 14:20:11;;;;;;;;;;;26.20;39.80;;;;;;5088155;28;19912;-74
2021/03/31 14:22:37;;;;;;;;;;;26.20;42.30;;;;;;5092593;28;19920;-74
2021/03/31 14:25:09;;;;;;;;;;;26.10;42.40;;;;;;5093140;28;19912;-74
2021/03/31 14:27:35;;;;;;;;;;;26.00;41.90;;;;;;5078304;28;19966;-74
2021/03/31 14:30:04;;;;;;;;;;;26.00;43.30;;;;;;5094076;28;20261;-74
2021/03/31 14:32:30;;;;;;;;;;;26.00;42.50;;;;;;5095857;28;19931;-74
2021/03/31 14:34:55;;;;;;;;;;;25.90;40.40;;;;;;5091001;28;19935;-74
2021/03/31 14:37:21;;;;;;;;;;;25.90;39.40;;;;;;5106212;27;19920;-74
2021/03/31 14:39:47;;;;;;;;;;;25.80;41.10;;;;;;5095659;28;20382;-74
2021/03/31 14:42:12;;;;;;;;;;;25.60;39.90;;;;;;5092136;28;19923;-74
2021/03/31 14:44:40;;;;;;;;;;;25.60;41.30;;;;;;5091018;28;19911;-74
2021/03/31 14:47:06;;;;;;;;;;;25.50;41.10;;;;;;5091033;28;20339;-75
2021/03/31 14:49:32;;;;;;;;;;;25.40;40.90;;;;;;5094871;28;19920;-74
2021/03/31 14:59:52;;;;;;;;;;;25.30;42.40;;;;;;5096084;28;19916;-74
2021/03/31 15:02:19;;;;;;;;;;;25.20;41.90;;;;;;5079674;28;20300;-74
2021/03/31 15:04:45;;;;;;;;;;;25.00;40.60;;;;;;5094093;28;20254;-74
2021/03/31 15:07:11;;;;;;;;;;;25.00;41.20;;;;;;5089855;28;19931;-77